Time,TemperatureF,DewpointF,PressureIn,WindDirection,WindDirectionDegrees,WindSpeedMPH,WindSpeedGustMPH,Humidity,HourlyPrecipIn,Conditions,Clouds,dailyrainin,SoftwareType,DateUTC
2013-10-22 00:23:00,37.0,-99.9,-100.00,North,0,0.0,0.0,-999,0.00,,,-99.99,,2013-10-22 05:23:00,
2013-10-22 00:53:00,36.0,-99.9,-100.00,North,0,0.0,0.0,-999,0.00,,,-99.99,,2013-10-22 05:53:00,
2013-10-22 01:22:00,36.0,-99.9,-100.00,North,0,0.0,0.0,-999,0.00,,,-99.99,,2013-10-22 06:22:00,
2013-10-22 01:54:00,36.0,-99.9,-100.00,North,0,0.0,0.0,-999,0.00,,,-99.99,,2013-10-22 06:54:00,
2013-10-22 02:23:00,35.0,-99.9,-100.00,North,0,0.0,0.0,-999,0.00,,,-99.99,,2013-10-22 07:23:00,
2013-10-22 02:52:00,37.0,-99.9,-100.00,North,0,0.0,0.0,-999,0.00,,,-99.99,,2013-10-22 07:52:00,
2013-10-22 03:22:00,39.0,-99.9,-100.00,North,0,0.0,0.0,-999,0.00,,,-99.99,,2013-10-22 08:22:00,
2013-10-22 03:52:00,37.0,-99.9,-100.00,North,0,0.0,0.0,-999,0.00,,,-99.99,,2013-10-22 08:52:00,
2013-10-22 04:22:00,37.0,-99.9,-100.00,North,0,0.0,0.0,-999,0.00,,,-99.99,,2013-10-22 09:22:00,
2013-10-22 04:54:00,38.0,-99.9,-100.00,North,0,0.0,0.0,-999,0.00,,,-99.99,,2013-10-22 09:54:00,
2013-10-22 05:23:00,36.0,-99.9,-100.00,North,0,0.0,0.0,-999,0.00,,,-99.99,,2013-10-22 10:23:00,
2013-10-22 05:54:00,36.0,-99.9,-100.00,North,0,0.0,0.0,-999,0.00,,,-99.99,,2013-10-22 10:54:00,
2013-10-22 06:22:00,34.0,-99.9,-100.00,North,0,0.0,0.0,-999,0.00,,,-99.99,,2013-10-22 11:22:00,
2013-10-22 06:53:00,34.0,-99.9,-100.00,North,0,0.0,0.0,-999,0.00,,,-99.99,,2013-10-22 11:53:00,
2013-10-22 07:22:00,38.0,-99.9,-100.00,North,0,0.0,0.0,-999,0.00,,,-99.99,,2013-10-22 12:22:00,
2013-10-22 07:42:00,38.0,-99.9,-100.00,North,0,0.0,0.0,-999,0.00,,,-99.99,,2013-10-22 12:42:00,
2013-10-22 07:52:00,39.0,-99.9,-100.00,North,0,0.0,0.0,-999,0.00,,,-99.99,,2013-10-22 12:52:00,
2013-10-22 08:22:00,41.0,-99.9,-100.00,SSE,153,5.0,6.0,-999,0.00,,,-99.99,,2013-10-22 13:22:00,
2013-10-22 08:42:00,42.0,-99.9,-100.00,SSE,165,4.0,5.0,-999,0.00,,,-99.99,,2013-10-22 13:42:00,
2013-10-22 08:53:00,43.0,-99.9,-100.00,SSE,156,4.0,5.0,-999,0.00,,,-99.99,,2013-10-22 13:53:00,
2013-10-22 09:22:00,44.0,-99.9,-100.00,SSE,155,4.0,7.0,-999,0.00,,,-99.99,,2013-10-22 14:22:00,
2013-10-22 09:52:00,49.0,-99.9,-100.00,SSE,158,3.0,5.0,-999,0.00,,,-99.99,,2013-10-22 14:52:00,
2013-10-22 12:22:00,66.0,-99.9,-100.00,SW,228,5.0,9.0,-999,0.00,,,-99.99,,2013-10-22 17:22:00,
2013-10-22 12:43:00,66.0,-99.9,-100.00,West,260,4.0,8.0,-999,0.00,,,-99.99,,2013-10-22 17:43:00,
2013-10-22 12:53:00,68.0,-99.9,-100.00,SW,236,4.0,7.0,-999,0.00,,,-99.99,,2013-10-22 17:53:00,
2013-10-22 13:22:00,67.0,-99.9,-100.00,WNW,284,5.0,10.0,-999,0.00,,,-99.99,,2013-10-22 18:22:00,
2013-10-22 13:42:00,67.0,-99.9,-100.00,West,270,5.0,9.0,-999,0.00,,,-99.99,,2013-10-22 18:42:00,
2013-10-22 13:52:00,69.0,-99.9,-100.00,WNW,301,4.0,7.0,-999,0.00,,,-99.99,,2013-10-22 18:52:00,
2013-10-22 14:22:00,69.0,-99.9,-100.00,WNW,291,4.0,8.0,-999,0.00,,,-99.99,,2013-10-22 19:22:00,
2013-10-22 14:43:00,71.0,-99.9,-100.00,NW,305,6.0,11.0,-999,0.00,,,-99.99,,2013-10-22 19:43:00,
2013-10-22 14:53:00,70.0,-99.9,-100.00,NW,304,6.0,11.0,-999,0.00,,,-99.99,,2013-10-22 19:53:00,
2013-10-22 15:23:00,72.0,-99.9,-100.00,West,280,7.0,12.0,-999,0.00,,,-99.99,,2013-10-22 20:23:00,
2013-10-22 15:43:00,72.0,-99.9,-100.00,WNW,298,8.0,13.0,-999,0.00,,,-99.99,,2013-10-22 20:43:00,
2013-10-22 15:52:00,72.0,-99.9,-100.00,WNW,291,7.0,13.0,-999,0.00,,,-99.99,,2013-10-22 20:52:00,
2013-10-22 16:23:00,74.0,-99.9,-100.00,NNW,328,6.0,10.0,-999,0.00,,,-99.99,,2013-10-22 21:23:00,
2013-10-22 16:44:00,74.0,-99.9,-100.00,WNW,285,7.0,12.0,-999,0.00,,,-99.99,,2013-10-22 21:44:00,
2013-10-22 16:54:00,74.0,-99.9,-100.00,WNW,295,7.0,12.0,-999,0.00,,,-99.99,,2013-10-22 21:54:00,
2013-10-22 17:24:00,73.0,-99.9,-100.00,WNW,284,8.0,15.0,-999,0.00,,,-99.99,,2013-10-22 22:24:00,
2013-10-22 17:44:00,73.0,-99.9,-100.00,WNW,288,6.0,15.0,-999,0.00,,,-99.99,,2013-10-22 22:44:00,
2013-10-22 17:54:00,72.0,-99.9,-100.00,West,278,6.0,12.0,-999,0.00,,,-99.99,,2013-10-22 22:54:00,
2013-10-22 18:23:00,72.0,-99.9,-100.00,NW,314,1.0,4.0,-999,0.00,,,-99.99,,2013-10-22 23:23:00,
2013-10-22 18:53:00,67.0,-99.9,-100.00,North,0,0.0,0.0,-999,0.00,,,-99.99,,2013-10-22 23:53:00,
2013-10-22 19:11:00,65.0,-99.9,-100.00,North,0,0.0,0.0,-999,0.00,,,-99.99,,2013-10-23 00:11:00,
2013-10-22 19:22:00,63.0,-99.9,-100.00,North,0,0.0,0.0,-999,0.00,,,-99.99,,2013-10-23 00:22:00,
2013-10-22 19:42:00,63.0,-99.9,-100.00,North,0,0.0,0.0,-999,0.00,,,-99.99,,2013-10-23 00:42:00,
2013-10-22 19:52:00,59.0,-99.9,-100.00,North,0,0.0,0.0,-999,0.00,,,-99.99,,2013-10-23 00:52:00,
2013-10-22 20:23:00,58.0,-99.9,-100.00,North,7,1.0,5.0,-999,0.00,,,-99.99,,2013-10-23 01:23:00,
2013-10-22 20:42:00,58.0,-99.9,-100.00,North,0,0.0,0.0,-999,0.00,,,-99.99,,2013-10-23 01:42:00,
2013-10-22 20:53:00,56.0,-99.9,-100.00,North,0,0.0,0.0,-999,0.00,,,-99.99,,2013-10-23 01:53:00,
2013-10-22 21:22:00,52.0,-99.9,-100.00,North,0,0.0,0.0,-999,0.00,,,-99.99,,2013-10-23 02:22:00,
2013-10-22 21:54:00,53.0,-99.9,-100.00,North,0,0.0,0.0,-999,0.00,,,-99.99,,2013-10-23 02:54:00,
2013-10-22 22:22:00,54.0,-99.9,-100.00,North,0,0.0,0.0,-999,0.00,,,-99.99,,2013-10-23 03:22:00,
2013-10-22 23:14:00,50.0,-99.9,-100.00,North,0,0.0,0.0,-999,0.00,,,-99.99,,2013-10-23 04:14:00,
2013-10-22 23:55:00,47.0,-99.9,-100.00,North,0,0.0,0.0,-999,0.00,,,-99.99,,2013-10-23 04:55:00,